createdAt,value
2023-01-06T00:01:14.724Z,20.00
2023-01-06T00:03:42.133Z,19.27
2023-01-06T00:06:11.621Z,19.88
2023-01-06T00:08:40.491Z,19.52
2023-01-06T00:11:09.771Z,20.77
2023-01-06T00:13:37.338Z,19.30
2023-01-06T00:16:12.997Z,19.60
2023-01-06T00:18:40.081Z,20.20
2023-01-06T00:21:08.194Z,19.10
2023-01-06T00:23:36.386Z,19.50
2023-01-06T00:26:04.657Z,19.67
2023-01-06T00:28:34.417Z,20.50
2023-01-06T00:31:13.872Z,18.98
2023-01-06T00:33:41.967Z,23.00
2023-01-06T00:36:10.291Z,20.42
2023-01-06T00:38:38.214Z,20.73
2023-01-06T00:41:32.158Z,19.55
2023-01-06T00:43:59.896Z,19.80
2023-01-06T00:46:29.641Z,20.17
2023-01-06T00:49:07.211Z,21.75
2023-01-06T00:51:39.913Z,20.13
2023-01-06T00:54:08.806Z,22.02
2023-01-06T00:56:40.732Z,22.63
2023-01-06T00:59:08.757Z,20.88
2023-01-06T01:01:36.520Z,21.00
2023-01-06T01:04:03.733Z,22.38
2023-01-06T01:06:30.831Z,22.40
2023-01-06T01:08:59.339Z,22.98
2023-01-06T01:11:45.828Z,20.90
2023-01-06T01:14:16.076Z,22.33
2023-01-06T01:16:43.146Z,23.58
2023-01-06T01:19:11.314Z,21.25
2023-01-06T01:21:38.287Z,23.17
2023-01-06T01:24:05.740Z,22.90
2023-01-06T01:26:32.716Z,23.23
2023-01-06T01:29:00.141Z,23.13
2023-01-06T01:31:27.230Z,21.70
2023-01-06T01:33:54.223Z,23.33
2023-01-06T01:36:21.239Z,22.67
2023-01-06T01:38:49.462Z,22.80
2023-01-06T01:41:19.807Z,21.80
2023-01-06T01:43:53.288Z,23.08
2023-01-06T01:46:30.308Z,23.08
2023-01-06T01:49:03.632Z,23.38
2023-01-06T01:51:40.867Z,22.60
2023-01-06T01:54:13.393Z,24.58
2023-01-06T01:56:44.485Z,25.48
2023-01-06T01:59:18.331Z,24.85
2023-01-06T02:01:47.019Z,24.67
2023-01-06T02:04:15.888Z,26.88
2023-01-06T02:06:43.703Z,26.13
2023-01-06T02:09:24.550Z,26.33
2023-01-06T02:11:52.263Z,25.35
2023-01-06T02:14:22.956Z,25.08
2023-01-06T02:17:15.594Z,27.23
2023-01-06T02:20:20.328Z,27.08
2023-01-06T02:23:05.349Z,26.27
2023-01-06T02:25:38.264Z,26.92
2023-01-06T02:28:43.051Z,24.63
2023-01-06T02:32:07.366Z,27.00
2023-01-06T02:34:51.338Z,25.08
2023-01-06T02:37:23.878Z,27.35
2023-01-06T02:40:34.940Z,27.40
2023-01-06T02:43:33.943Z,27.10
2023-01-06T02:46:32.372Z,28.33
2023-01-06T02:49:27.242Z,27.75
2023-01-06T02:52:13.067Z,27.85
2023-01-06T02:54:58.882Z,26.20
2023-01-06T02:57:29.297Z,26.90
2023-01-06T02:59:58.639Z,27.85
2023-01-06T03:02:27.467Z,27.65
2023-01-06T03:04:56.691Z,28.48
2023-01-06T03:07:25.435Z,27.00
2023-01-06T03:09:55.105Z,26.50
2023-01-06T03:12:38.978Z,26.58
2023-01-06T03:15:07.401Z,26.88
2023-01-06T03:17:35.263Z,27.15
2023-01-06T03:20:03.523Z,26.77
2023-01-06T03:22:33.732Z,27.25
2023-01-06T03:25:01.639Z,26.70
2023-01-06T03:27:28.672Z,26.73
2023-01-06T03:29:57.093Z,27.70
2023-01-06T03:32:38.793Z,27.17
2023-01-06T03:35:30.383Z,27.52
2023-01-06T03:38:00.464Z,27.08
2023-01-06T03:40:38.614Z,25.50
2023-01-06T03:43:31.265Z,27.30
2023-01-06T03:46:34.821Z,27.38
2023-01-06T03:49:09.665Z,27.88
2023-01-06T03:51:57.914Z,26.98
2023-01-06T03:54:32.615Z,26.10
2023-01-06T03:57:16.248Z,27.45
2023-01-06T03:59:49.517Z,26.50
2023-01-06T04:02:20.769Z,27.75
2023-01-06T04:05:06.859Z,27.92
2023-01-06T04:07:33.917Z,27.33
2023-01-06T04:10:00.984Z,27.55
2023-01-06T04:12:40.071Z,27.20
2023-01-06T04:15:16.183Z,26.42
2023-01-06T04:17:47.772Z,25.58
2023-01-06T04:20:21.709Z,25.55
2023-01-06T04:22:53.523Z,26.52
2023-01-06T04:25:21.374Z,26.65
2023-01-06T04:27:48.547Z,27.25
2023-01-06T04:30:15.707Z,27.52
2023-01-06T04:32:43.904Z,27.15
2023-01-06T04:35:11.753Z,28.27
2023-01-06T04:37:39.542Z,28.73
2023-01-06T04:40:07.794Z,25.75
2023-01-06T04:42:55.134Z,26.13
2023-01-06T04:45:22.719Z,26.95
2023-01-06T04:47:49.775Z,26.42
2023-01-06T04:50:17.205Z,26.27
2023-01-06T04:52:44.522Z,26.08
2023-01-06T04:55:12.249Z,26.63
2023-01-06T04:57:39.386Z,28.10
2023-01-06T05:00:07.079Z,26.00
2023-01-06T05:02:34.230Z,24.60
2023-01-06T05:05:01.208Z,25.58
2023-01-06T05:07:28.194Z,26.20
2023-01-06T05:09:55.174Z,28.95
2023-01-06T05:12:22.539Z,28.17
2023-01-06T05:14:49.659Z,27.48
2023-01-06T05:17:16.792Z,27.08
2023-01-06T05:19:44.540Z,27.30
2023-01-06T05:22:12.091Z,28.50
2023-01-06T05:24:39.111Z,26.25
2023-01-06T05:27:06.132Z,28.77
2023-01-06T05:29:33.660Z,24.75
2023-01-06T05:32:00.846Z,26.80
2023-01-06T05:34:28.114Z,27.67
2023-01-06T05:36:55.999Z,27.10
2023-01-06T05:39:23.000Z,25.38
2023-01-06T05:41:50.522Z,28.40
2023-01-06T05:44:19.943Z,27.30
2023-01-06T05:46:47.662Z,25.73
2023-01-06T05:49:14.614Z,26.10
2023-01-06T05:51:41.624Z,27.98
2023-01-06T05:54:09.916Z,28.20
2023-01-06T05:56:37.139Z,28.77
2023-01-06T05:59:04.677Z,27.05
2023-01-06T06:01:32.664Z,27.73
2023-01-06T06:04:00.645Z,26.70
2023-01-06T06:06:29.460Z,28.52
2023-01-06T06:08:57.311Z,27.30
2023-01-06T06:11:24.807Z,27.85
2023-01-06T06:13:54.458Z,27.92
2023-01-06T06:16:24.569Z,27.98
2023-01-06T06:18:53.752Z,28.35
2023-01-06T06:21:23.637Z,26.90
2023-01-06T06:23:53.145Z,26.58
2023-01-06T06:26:20.486Z,27.02
2023-01-06T06:28:47.577Z,25.58
2023-01-06T06:31:26.314Z,28.20
2023-01-06T06:33:58.525Z,27.52
2023-01-06T06:36:26.497Z,27.42
2023-01-06T06:38:54.673Z,26.13
2023-01-06T06:41:23.505Z,27.83
2023-01-06T06:43:51.069Z,27.48
2023-01-06T06:46:19.518Z,26.05
2023-01-06T06:48:46.764Z,26.23
2023-01-06T06:51:17.016Z,26.02
2023-01-06T06:53:45.043Z,24.40
2023-01-06T06:56:13.175Z,24.65
2023-01-06T06:58:40.255Z,24.52
2023-01-06T07:01:12.649Z,25.52
2023-01-06T07:03:40.142Z,25.50
2023-01-06T07:06:10.330Z,25.17
2023-01-06T07:08:37.328Z,24.13
2023-01-06T07:11:05.032Z,24.27
2023-01-06T07:13:31.976Z,24.23
2023-01-06T07:15:59.040Z,23.63
2023-01-06T07:18:26.176Z,25.90
2023-01-06T07:20:54.119Z,24.50
2023-01-06T07:23:22.264Z,23.65
2023-01-06T07:25:57.534Z,23.20
2023-01-06T07:28:24.963Z,22.58
2023-01-06T07:30:52.374Z,22.33
2023-01-06T07:33:20.128Z,22.75
2023-01-06T07:35:47.323Z,24.45
2023-01-06T07:38:14.347Z,24.33
2023-01-06T07:40:41.352Z,23.25
2023-01-06T07:43:09.843Z,23.08
2023-01-06T07:45:37.565Z,21.92
2023-01-06T07:48:05.118Z,21.67
2023-01-06T07:50:33.034Z,23.00
2023-01-06T07:53:02.302Z,22.50
2023-01-06T07:55:30.324Z,22.02
2023-01-06T07:57:58.874Z,22.70
2023-01-06T08:00:26.446Z,22.52
2023-01-06T08:02:53.566Z,23.58
2023-01-06T08:05:20.610Z,22.45
2023-01-06T08:07:47.753Z,22.40
2023-01-06T08:10:14.793Z,22.58
2023-01-06T08:12:41.840Z,21.45
2023-01-06T08:15:09.107Z,20.83
2023-01-06T08:17:36.097Z,20.77
2023-01-06T08:20:03.565Z,21.67
2023-01-06T08:22:30.603Z,20.83
2023-01-06T08:24:57.590Z,20.23
2023-01-06T08:27:24.612Z,20.05
2023-01-06T08:29:54.754Z,22.05
2023-01-06T08:32:22.596Z,19.58
2023-01-06T08:34:49.617Z,22.60
2023-01-06T08:37:16.669Z,19.88
2023-01-06T08:39:43.815Z,19.35
2023-01-06T08:42:10.953Z,20.75
2023-01-06T08:44:37.968Z,18.92
2023-01-06T08:47:05.228Z,20.08
2023-01-06T08:49:32.442Z,19.48
2023-01-06T08:51:59.477Z,20.90
2023-01-06T08:54:28.498Z,20.58
2023-01-06T08:56:56.316Z,19.85
2023-01-06T08:59:23.508Z,18.42
2023-01-06T09:01:50.823Z,19.05
2023-01-06T09:04:17.927Z,20.58
2023-01-06T09:06:45.222Z,19.30
2023-01-06T09:09:12.334Z,19.52
2023-01-06T09:11:46.357Z,19.13
2023-01-06T09:14:14.228Z,18.30
2023-01-06T09:16:41.736Z,19.42
2023-01-06T09:19:10.429Z,21.15
2023-01-06T09:21:37.868Z,20.48
2023-01-06T09:24:05.198Z,20.23
2023-01-06T09:26:32.281Z,18.95
2023-01-06T09:28:59.427Z,19.67
2023-01-06T09:31:26.918Z,18.00
2023-01-06T09:33:54.421Z,18.30
2023-01-06T09:36:22.417Z,19.67
2023-01-06T09:38:49.386Z,18.88
2023-01-06T09:41:37.872Z,18.50
2023-01-06T09:44:19.153Z,17.33
2023-01-06T09:46:50.092Z,18.83
2023-01-06T09:49:38.611Z,18.15
2023-01-06T09:52:16.400Z,19.80
2023-01-06T09:55:14.986Z,17.98
2023-01-06T09:57:48.574Z,18.60
2023-01-06T10:00:52.726Z,16.58
2023-01-06T10:03:25.617Z,16.23
2023-01-06T10:06:30.741Z,16.08
2023-01-06T10:09:12.866Z,20.08
2023-01-06T10:12:10.598Z,20.73
2023-01-06T10:14:49.293Z,19.27
2023-01-06T10:17:53.540Z,20.58
2023-01-06T10:20:42.976Z,20.15
2023-01-06T10:23:22.077Z,20.13
2023-01-06T10:25:55.050Z,21.50
2023-01-06T10:28:31.898Z,22.67
2023-01-06T10:31:09.877Z,22.13
2023-01-06T10:33:43.057Z,21.55
2023-01-06T10:36:15.423Z,20.70
2023-01-06T10:38:53.435Z,20.80
2023-01-06T10:41:41.797Z,19.73
2023-01-06T10:44:13.003Z,20.45
2023-01-06T10:46:41.465Z,21.42
2023-01-06T10:49:17.361Z,20.67
2023-01-06T10:51:51.542Z,20.58
2023-01-06T10:54:39.794Z,19.95
2023-01-06T10:57:26.930Z,21.20
2023-01-06T11:00:22.990Z,21.52
2023-01-06T11:02:57.825Z,21.75
2023-01-06T11:05:33.570Z,21.92
2023-01-06T11:08:11.586Z,21.48
2023-01-06T11:10:43.871Z,21.52
2023-01-06T11:13:28.586Z,22.40
2023-01-06T11:15:56.558Z,21.25
2023-01-06T11:18:28.075Z,21.00
2023-01-06T11:21:13.612Z,19.42
2023-01-06T11:23:42.853Z,20.77
2023-01-06T11:26:12.673Z,18.58
2023-01-06T11:28:41.203Z,18.77
2023-01-06T11:31:11.102Z,19.63
2023-01-06T11:33:51.175Z,19.63
2023-01-06T11:36:19.407Z,20.80
2023-01-06T11:38:55.058Z,19.88
2023-01-06T11:41:37.929Z,19.65
2023-01-06T11:44:32.725Z,19.35
2023-01-06T11:47:18.174Z,18.77
2023-01-06T11:49:55.039Z,19.25
2023-01-06T11:52:27.131Z,18.67
2023-01-06T11:55:03.125Z,18.85
2023-01-06T11:57:46.530Z,20.15
2023-01-06T12:00:30.747Z,19.35
2023-01-06T12:03:20.051Z,20.23
2023-01-06T12:05:49.747Z,19.92
2023-01-06T12:08:35.114Z,18.80
2023-01-06T12:11:43.414Z,19.57
2023-01-06T12:14:29.056Z,18.90
2023-01-06T12:19:45.235Z,18.52
2023-01-06T12:22:49.276Z,17.75
2023-01-06T12:25:24.299Z,20.23
2023-01-06T12:28:05.080Z,19.67
2023-01-06T12:31:02.531Z,18.73
2023-01-06T12:33:43.468Z,19.63
2023-01-06T12:36:34.627Z,18.13
2023-01-06T12:39:43.202Z,20.35
2023-01-06T12:42:28.661Z,19.00
2023-01-06T12:44:58.362Z,19.85
2023-01-06T12:47:42.105Z,19.95
2023-01-06T12:50:37.999Z,18.88
2023-01-06T12:53:23.629Z,18.75
2023-01-06T12:56:19.404Z,18.65
2023-01-06T12:59:17.061Z,18.50
2023-01-06T13:02:18.647Z,18.25
2023-01-06T13:04:57.519Z,18.95
2023-01-06T13:07:24.435Z,18.90
2023-01-06T13:10:04.799Z,18.65
2023-01-06T13:12:47.268Z,20.10
2023-01-06T13:15:23.400Z,18.67
2023-01-06T13:18:04.662Z,18.75
2023-01-06T13:20:39.222Z,20.05
2023-01-06T13:23:30.189Z,19.83
2023-01-06T13:26:18.557Z,20.42
2023-01-06T13:29:05.181Z,19.35
2023-01-06T13:31:55.094Z,18.65
2023-01-06T13:34:49.774Z,19.52
2023-01-06T13:37:40.605Z,18.73
2023-01-06T13:40:14.563Z,19.15
2023-01-06T13:42:54.332Z,18.98
2023-01-06T13:45:33.902Z,20.13
2023-01-06T13:48:08.167Z,18.88
2023-01-06T13:50:37.972Z,19.75
2023-01-06T13:53:06.387Z,19.73
2023-01-06T13:55:39.027Z,20.48
2023-01-06T13:58:25.458Z,18.35
2023-01-06T14:01:07.561Z,20.45
2023-01-06T14:03:35.777Z,18.75
2023-01-06T14:06:03.744Z,19.70
2023-01-06T14:08:36.096Z,20.25
2023-01-06T14:11:21.380Z,18.65
2023-01-06T14:14:00.049Z,19.20
2023-01-06T14:16:39.362Z,19.08
2023-01-06T14:19:09.510Z,19.00
2023-01-06T14:21:36.654Z,19.05
2023-01-06T14:24:06.813Z,20.88
2023-01-06T14:26:51.657Z,19.10
2023-01-06T14:29:40.633Z,18.77
2023-01-06T14:32:07.642Z,18.05
2023-01-06T14:34:41.476Z,19.35
2023-01-06T14:37:14.053Z,18.52
2023-01-06T14:39:47.497Z,20.05
2023-01-06T14:42:29.809Z,17.45
2023-01-06T14:45:00.167Z,18.88
2023-01-06T14:47:31.801Z,18.60
2023-01-06T14:50:05.697Z,18.48
2023-01-06T14:52:40.975Z,18.40
2023-01-06T14:55:18.027Z,19.30
2023-01-06T14:57:45.088Z,18.63
2023-01-06T15:00:15.194Z,19.00
2023-01-06T15:03:20.689Z,19.85
2023-01-06T15:05:47.720Z,18.65
2023-01-06T15:08:19.284Z,19.08
2023-01-06T15:10:48.736Z,19.05
2023-01-06T15:13:30.357Z,18.90
2023-01-06T15:16:12.340Z,20.88
2023-01-06T15:18:43.837Z,19.17
2023-01-06T15:21:13.353Z,18.27
2023-01-06T15:23:45.364Z,19.45
2023-01-06T15:26:26.561Z,19.15
2023-01-06T15:29:05.786Z,17.83
2023-01-06T15:31:37.940Z,18.83
2023-01-06T15:34:35.550Z,18.63
2023-01-06T15:37:07.215Z,19.67
2023-01-06T15:39:37.846Z,19.75
2023-01-06T15:42:09.814Z,17.55
2023-01-06T15:44:39.066Z,18.85
2023-01-06T15:47:32.185Z,17.65
2023-01-06T15:50:03.511Z,20.20
2023-01-06T15:52:46.448Z,19.38
2023-01-06T15:55:26.187Z,19.80
2023-01-06T15:58:09.379Z,19.50
2023-01-06T16:00:56.600Z,19.67
2023-01-06T16:03:26.756Z,19.58
2023-01-06T16:06:11.584Z,18.50
2023-01-06T16:08:39.222Z,19.73
2023-01-06T16:11:40.890Z,19.23
2023-01-06T16:14:35.706Z,19.23
2023-01-06T16:17:04.293Z,18.30
2023-01-06T16:19:32.140Z,19.45
2023-01-06T16:22:03.645Z,19.45
2023-01-06T16:24:31.474Z,20.45
2023-01-06T16:27:06.559Z,19.65
2023-01-06T16:29:36.126Z,19.67
2023-01-06T16:32:28.324Z,20.00
2023-01-06T16:35:00.797Z,21.02
2023-01-06T16:37:32.253Z,20.48
2023-01-06T16:39:59.599Z,18.05
2023-01-06T16:42:41.188Z,20.63
2023-01-06T16:45:11.370Z,19.60
2023-01-06T16:47:39.973Z,19.67
2023-01-06T16:50:15.951Z,21.88
2023-01-06T16:52:45.355Z,21.33
2023-01-06T16:55:18.296Z,20.35
2023-01-06T16:57:51.224Z,20.48
2023-01-06T17:00:21.804Z,20.10
2023-01-06T17:02:50.017Z,19.17
2023-01-06T17:05:24.837Z,19.88
2023-01-06T17:07:56.712Z,19.93
2023-01-06T17:10:25.335Z,19.92
2023-01-06T17:13:19.767Z,19.45
2023-01-06T17:15:51.014Z,19.70
2023-01-06T17:18:24.344Z,19.27
2023-01-06T17:20:53.127Z,19.85
2023-01-06T17:23:20.220Z,20.25
2023-01-06T17:25:47.352Z,19.55
2023-01-06T17:28:20.978Z,20.27
2023-01-06T17:30:49.618Z,21.95
2023-01-06T17:33:18.208Z,20.88
2023-01-06T17:35:48.929Z,20.60
2023-01-06T17:38:23.509Z,20.33
2023-01-06T17:40:51.497Z,20.13
2023-01-06T17:43:23.965Z,20.95
2023-01-06T17:45:51.630Z,20.27
2023-01-06T17:48:18.835Z,19.88
2023-01-06T17:50:52.342Z,20.73
2023-01-06T17:53:45.812Z,19.42
2023-01-06T17:56:13.202Z,19.85
2023-01-06T17:58:42.895Z,19.13
2023-01-06T18:01:24.005Z,22.10
2023-01-06T18:03:53.537Z,19.67
2023-01-06T18:06:26.444Z,21.38
2023-01-06T18:09:09.091Z,20.55
2023-01-06T18:11:41.610Z,21.83
2023-01-06T18:14:17.591Z,20.48
2023-01-06T18:16:49.161Z,21.30
2023-01-06T18:19:33.595Z,22.25
2023-01-06T18:22:03.222Z,23.23
2023-01-06T18:24:36.015Z,22.88
2023-01-06T18:27:16.346Z,20.90
2023-01-06T18:29:44.691Z,23.05
2023-01-06T18:32:20.477Z,22.98
2023-01-06T18:37:24.406Z,22.10
2023-01-06T18:39:56.899Z,23.40
2023-01-06T18:42:37.569Z,21.98
2023-01-06T18:45:18.280Z,21.33
2023-01-06T18:47:55.772Z,20.83
2023-01-06T18:50:29.821Z,21.77
2023-01-06T18:53:30.762Z,23.33
2023-01-06T18:56:09.319Z,22.75
2023-01-06T18:58:49.760Z,23.08
2023-01-06T19:01:40.997Z,23.63
2023-01-06T19:04:28.942Z,23.15
2023-01-06T19:07:01.359Z,21.77
2023-01-06T19:09:39.971Z,23.02
2023-01-06T19:12:18.110Z,23.52
2023-01-06T19:14:55.217Z,23.90
2023-01-06T19:17:36.944Z,23.58
2023-01-06T19:20:14.422Z,21.83
2023-01-06T19:22:41.619Z,22.27
2023-01-06T19:25:26.554Z,24.33
2023-01-06T19:27:57.954Z,22.77
2023-01-06T19:30:28.095Z,21.95
2023-01-06T19:32:57.827Z,22.50
2023-01-06T19:35:29.022Z,22.52
2023-01-06T19:38:02.064Z,22.73
2023-01-06T19:40:31.351Z,23.35
2023-01-06T19:43:13.327Z,24.38
2023-01-06T19:45:40.570Z,22.42
2023-01-06T19:48:26.802Z,23.45
2023-01-06T19:53:44.182Z,24.23
2023-01-06T19:56:22.727Z,23.33
2023-01-06T19:59:03.226Z,25.02
2023-01-06T20:01:33.116Z,24.33
2023-01-06T20:04:00.987Z,24.77
2023-01-06T20:06:28.369Z,23.77
2023-01-06T20:08:55.486Z,23.27
2023-01-06T20:11:24.498Z,20.70
2023-01-06T20:13:52.228Z,21.25
2023-01-06T20:16:19.326Z,21.42
2023-01-06T20:18:46.449Z,22.42
2023-01-06T20:21:13.381Z,21.10
2023-01-06T20:23:40.320Z,22.35
2023-01-06T20:26:07.440Z,21.15
2023-01-06T20:28:34.444Z,20.88
2023-01-06T20:31:01.500Z,21.58
2023-01-06T20:33:28.593Z,20.60
2023-01-06T20:35:55.799Z,22.58
2023-01-06T20:38:22.908Z,20.75
2023-01-06T20:40:50.190Z,21.67
2023-01-06T20:43:17.236Z,22.92
2023-01-06T20:45:44.431Z,22.58
2023-01-06T20:48:11.576Z,21.38
2023-01-06T20:50:41.967Z,21.35
2023-01-06T20:53:09.664Z,22.27
2023-01-06T20:55:36.797Z,22.60
2023-01-06T20:58:03.803Z,22.65
2023-01-06T21:00:30.949Z,23.30
2023-01-06T21:02:58.034Z,22.20
2023-01-06T21:05:25.051Z,22.02
2023-01-06T21:07:51.977Z,23.08
2023-01-06T21:10:19.063Z,23.45
2023-01-06T21:12:46.013Z,22.98
2023-01-06T21:15:14.019Z,22.60
2023-01-06T21:17:41.231Z,21.60
2023-01-06T21:20:09.098Z,21.95
2023-01-06T21:22:36.173Z,22.70
2023-01-06T21:25:03.283Z,22.42
2023-01-06T21:27:30.463Z,23.15
2023-01-06T21:29:57.471Z,22.55
2023-01-06T21:32:24.463Z,20.60
2023-01-06T21:34:52.095Z,21.58
2023-01-06T21:37:19.200Z,20.95
2023-01-06T21:39:48.025Z,21.17
2023-01-06T21:42:34.100Z,21.23
2023-01-06T21:45:01.188Z,21.15
2023-01-06T21:47:28.246Z,20.63
2023-01-06T21:49:55.280Z,20.52
2023-01-06T21:52:22.294Z,21.45
2023-01-06T21:54:49.558Z,21.13
2023-01-06T21:57:16.578Z,22.92
2023-01-06T21:59:44.154Z,21.88
2023-01-06T22:02:11.309Z,23.13
2023-01-06T22:04:38.348Z,22.13
2023-01-06T22:07:09.230Z,22.70
2023-01-06T22:09:38.608Z,21.33
2023-01-06T22:12:08.943Z,22.08
2023-01-06T22:14:36.307Z,20.25
2023-01-06T22:17:04.207Z,21.30
2023-01-06T22:19:31.935Z,20.65
2023-01-06T22:22:00.690Z,20.80
2023-01-06T22:24:29.272Z,20.40
2023-01-06T22:26:56.308Z,21.20
2023-01-06T22:29:23.461Z,21.00
2023-01-06T22:31:50.528Z,20.17
2023-01-06T22:34:17.546Z,20.00
2023-01-06T22:36:44.547Z,20.50
2023-01-06T22:39:11.708Z,21.10
2023-01-06T22:41:38.676Z,21.08
2023-01-06T22:44:05.647Z,19.58
2023-01-06T22:46:32.737Z,20.73
2023-01-06T22:48:59.729Z,20.80
2023-01-06T22:51:28.618Z,19.70
2023-01-06T22:53:56.951Z,20.75
2023-01-06T22:56:24.314Z,22.17
2023-01-06T22:58:51.524Z,21.77
2023-01-06T23:01:18.789Z,20.58
2023-01-06T23:03:45.854Z,20.73
2023-01-06T23:06:14.552Z,21.25
2023-01-06T23:08:58.580Z,20.33
2023-01-06T23:11:28.012Z,20.70
2023-01-06T23:13:59.165Z,20.83
2023-01-06T23:16:27.124Z,21.25
2023-01-06T23:18:54.510Z,20.25
2023-01-06T23:21:23.751Z,20.38
2023-01-06T23:23:51.685Z,20.92
2023-01-06T23:26:22.030Z,21.00
2023-01-06T23:28:49.677Z,20.42
2023-01-06T23:31:19.746Z,20.58
2023-01-06T23:33:51.600Z,20.48
2023-01-06T23:36:20.008Z,20.77
2023-01-06T23:38:47.692Z,21.15
2023-01-06T23:41:23.305Z,20.75
2023-01-06T23:43:51.140Z,21.58
2023-01-06T23:46:25.523Z,21.15
2023-01-06T23:48:53.530Z,21.10
2023-01-06T23:51:22.445Z,21.25
2023-01-06T23:53:49.551Z,21.98
2023-01-06T23:56:17.824Z,23.27
2023-01-06T23:58:46.570Z,22.58
